sensor_id;sensor_type;location;lat;lon;timestamp;P1;durP1;ratioP1;P2;durP2;ratioP2
21941;SDS011;11135;54.192;15.670;2023-02-28T00:00:34;11.98;;;5.40;;
21941;SDS011;11135;54.192;15.670;2023-02-28T00:03:56;11.00;;;5.65;;
21941;SDS011;11135;54.192;15.670;2023-02-28T00:07:03;12.15;;;6.03;;
21941;SDS011;11135;54.192;15.670;2023-02-28T00:10:10;13.07;;;6.00;;
21941;SDS011;11135;54.192;15.670;2023-02-28T00:13:16;12.95;;;6.72;;
21941;SDS011;11135;54.192;15.670;2023-02-28T00:16:25;13.23;;;6.88;;
21941;SDS011;11135;54.192;15.670;2023-02-28T00:19:35;12.55;;;6.68;;
21941;SDS011;11135;54.192;15.670;2023-02-28T00:22:42;11.07;;;6.10;;
21941;SDS011;11135;54.192;15.670;2023-02-28T00:25:49;12.18;;;7.00;;
21941;SDS011;11135;54.192;15.670;2023-02-28T00:28:55;13.48;;;6.90;;
21941;SDS011;11135;54.192;15.670;2023-02-28T00:32:00;13.55;;;7.80;;
21941;SDS011;11135;54.192;15.670;2023-02-28T00:35:12;14.65;;;7.07;;
21941;SDS011;11135;54.192;15.670;2023-02-28T00:38:23;13.75;;;6.75;;
21941;SDS011;11135;54.192;15.670;2023-02-28T00:41:32;12.73;;;6.35;;
21941;SDS011;11135;54.192;15.670;2023-02-28T00:44:38;13.75;;;7.10;;
21941;SDS011;11135;54.192;15.670;2023-02-28T00:47:47;13.07;;;7.20;;
21941;SDS011;11135;54.192;15.670;2023-02-28T00:50:58;16.45;;;8.13;;
21941;SDS011;11135;54.192;15.670;2023-02-28T00:54:06;16.92;;;8.57;;
21941;SDS011;11135;54.192;15.670;2023-02-28T00:57:11;12.70;;;7.40;;
21941;SDS011;11135;54.192;15.670;2023-02-28T01:00:21;15.00;;;8.63;;
21941;SDS011;11135;54.192;15.670;2023-02-28T01:03:26;14.75;;;8.05;;
21941;SDS011;11135;54.192;15.670;2023-02-28T01:06:34;14.50;;;7.80;;
21941;SDS011;11135;54.192;15.670;2023-02-28T01:09:41;14.65;;;7.80;;
21941;SDS011;11135;54.192;15.670;2023-02-28T01:12:52;14.95;;;7.45;;
21941;SDS011;11135;54.192;15.670;2023-02-28T01:16:05;17.38;;;8.00;;
21941;SDS011;11135;54.192;15.670;2023-02-28T01:19:16;15.75;;;7.78;;
21941;SDS011;11135;54.192;15.670;2023-02-28T01:22:27;12.57;;;7.57;;
21941;SDS011;11135;54.192;15.670;2023-02-28T01:25:34;12.25;;;7.18;;
21941;SDS011;11135;54.192;15.670;2023-02-28T01:28:41;14.25;;;8.05;;
21941;SDS011;11135;54.192;15.670;2023-02-28T01:31:56;18.08;;;7.63;;
21941;SDS011;11135;54.192;15.670;2023-02-28T01:35:07;15.32;;;7.78;;
21941;SDS011;11135;54.192;15.670;2023-02-28T01:38:18;17.75;;;8.48;;
21941;SDS011;11135;54.192;15.670;2023-02-28T01:41:25;14.23;;;8.70;;
21941;SDS011;11135;54.192;15.670;2023-02-28T01:47:55;14.98;;;8.65;;
21941;SDS011;11135;54.192;15.670;2023-02-28T01:51:05;15.68;;;7.55;;
21941;SDS011;11135;54.192;15.670;2023-02-28T01:54:16;18.85;;;8.77;;
21941;SDS011;11135;54.192;15.670;2023-02-28T01:57:28;14.48;;;8.07;;
21941;SDS011;11135;54.192;15.670;2023-02-28T02:00:39;12.15;;;7.55;;
21941;SDS011;11135;54.192;15.670;2023-02-28T02:03:48;15.02;;;8.43;;
21941;SDS011;11135;54.192;15.670;2023-02-28T02:07:05;15.40;;;6.95;;
21941;SDS011;11135;54.192;15.670;2023-02-28T02:10:24;16.58;;;7.78;;
21941;SDS011;11135;54.192;15.670;2023-02-28T02:13:34;14.85;;;8.40;;
21941;SDS011;11135;54.192;15.670;2023-02-28T02:16:50;13.07;;;7.60;;
21941;SDS011;11135;54.192;15.670;2023-02-28T02:23:42;14.90;;;6.97;;
21941;SDS011;11135;54.192;15.670;2023-02-28T02:27:09;10.70;;;6.25;;
21941;SDS011;11135;54.192;15.670;2023-02-28T02:30:26;13.02;;;7.07;;
21941;SDS011;11135;54.192;15.670;2023-02-28T02:40:32;13.32;;;7.13;;
21941;SDS011;11135;54.192;15.670;2023-02-28T02:43:44;15.95;;;8.20;;
21941;SDS011;11135;54.192;15.670;2023-02-28T02:46:51;14.02;;;8.30;;
21941;SDS011;11135;54.192;15.670;2023-02-28T02:49:59;11.60;;;6.30;;
21941;SDS011;11135;54.192;15.670;2023-02-28T02:53:06;11.48;;;6.88;;
21941;SDS011;11135;54.192;15.670;2023-02-28T02:56:17;12.00;;;6.60;;
21941;SDS011;11135;54.192;15.670;2023-02-28T02:59:25;11.85;;;6.80;;
21941;SDS011;11135;54.192;15.670;2023-02-28T03:02:30;12.68;;;6.78;;
21941;SDS011;11135;54.192;15.670;2023-02-28T03:05:39;17.05;;;6.68;;
21941;SDS011;11135;54.192;15.670;2023-02-28T03:08:47;15.18;;;7.65;;
21941;SDS011;11135;54.192;15.670;2023-02-28T03:12:08;14.65;;;7.10;;
21941;SDS011;11135;54.192;15.670;2023-02-28T03:15:19;12.75;;;6.72;;
21941;SDS011;11135;54.192;15.670;2023-02-28T03:18:30;14.25;;;8.10;;
21941;SDS011;11135;54.192;15.670;2023-02-28T03:21:56;12.88;;;6.72;;
21941;SDS011;11135;54.192;15.670;2023-02-28T03:25:09;11.52;;;5.38;;
21941;SDS011;11135;54.192;15.670;2023-02-28T03:28:21;11.38;;;6.65;;
21941;SDS011;11135;54.192;15.670;2023-02-28T03:31:33;13.80;;;7.38;;
21941;SDS011;11135;54.192;15.670;2023-02-28T03:34:44;16.83;;;8.73;;
21941;SDS011;11135;54.192;15.670;2023-02-28T03:37:53;12.63;;;6.80;;
21941;SDS011;11135;54.192;15.670;2023-02-28T03:41:01;14.80;;;7.20;;
21941;SDS011;11135;54.192;15.670;2023-02-28T03:44:14;12.60;;;7.22;;
21941;SDS011;11135;54.192;15.670;2023-02-28T03:47:24;11.20;;;7.10;;
21941;SDS011;11135;54.192;15.670;2023-02-28T03:50:37;13.70;;;7.43;;
21941;SDS011;11135;54.192;15.670;2023-02-28T03:53:44;15.05;;;6.57;;
21941;SDS011;11135;54.192;15.670;2023-02-28T03:56:51;13.18;;;6.35;;
21941;SDS011;11135;54.192;15.670;2023-02-28T04:00:02;11.27;;;6.18;;
21941;SDS011;11135;54.192;15.670;2023-02-28T04:03:11;11.05;;;5.75;;
21941;SDS011;11135;54.192;15.670;2023-02-28T04:06:17;12.32;;;6.22;;
21941;SDS011;11135;54.192;15.670;2023-02-28T04:09:25;12.65;;;7.15;;
21941;SDS011;11135;54.192;15.670;2023-02-28T04:12:32;11.38;;;6.55;;
21941;SDS011;11135;54.192;15.670;2023-02-28T04:15:41;14.70;;;7.63;;
21941;SDS011;11135;54.192;15.670;2023-02-28T04:18:49;14.95;;;7.82;;
21941;SDS011;11135;54.192;15.670;2023-02-28T04:21:56;12.18;;;7.25;;
21941;SDS011;11135;54.192;15.670;2023-02-28T04:25:03;17.08;;;7.88;;
21941;SDS011;11135;54.192;15.670;2023-02-28T04:28:08;17.70;;;7.32;;
21941;SDS011;11135;54.192;15.670;2023-02-28T04:31:16;13.00;;;6.65;;
21941;SDS011;11135;54.192;15.670;2023-02-28T04:34:21;10.82;;;5.85;;
21941;SDS011;11135;54.192;15.670;2023-02-28T04:37:27;12.82;;;6.00;;
21941;SDS011;11135;54.192;15.670;2023-02-28T04:40:32;12.75;;;6.57;;
21941;SDS011;11135;54.192;15.670;2023-02-28T04:43:37;16.15;;;7.50;;
21941;SDS011;11135;54.192;15.670;2023-02-28T04:46:48;13.18;;;7.50;;
21941;SDS011;11135;54.192;15.670;2023-02-28T04:49:54;15.63;;;7.43;;
21941;SDS011;11135;54.192;15.670;2023-02-28T04:53:00;13.90;;;6.53;;
21941;SDS011;11135;54.192;15.670;2023-02-28T04:56:07;14.80;;;7.30;;
21941;SDS011;11135;54.192;15.670;2023-02-28T04:59:15;14.43;;;7.55;;
21941;SDS011;11135;54.192;15.670;2023-02-28T05:02:27;14.40;;;8.23;;
21941;SDS011;11135;54.192;15.670;2023-02-28T05:05:34;15.30;;;7.25;;
21941;SDS011;11135;54.192;15.670;2023-02-28T05:08:40;15.63;;;7.05;;
21941;SDS011;11135;54.192;15.670;2023-02-28T05:11:55;11.95;;;6.50;;
21941;SDS011;11135;54.192;15.670;2023-02-28T05:15:02;12.13;;;7.70;;
21941;SDS011;11135;54.192;15.670;2023-02-28T05:18:12;16.65;;;7.55;;
21941;SDS011;11135;54.192;15.670;2023-02-28T05:21:24;16.50;;;7.95;;
21941;SDS011;11135;54.192;15.670;2023-02-28T05:24:30;12.95;;;6.15;;
21941;SDS011;11135;54.192;15.670;2023-02-28T05:27:38;16.00;;;7.78;;
21941;SDS011;11135;54.192;15.670;2023-02-28T05:30:48;14.07;;;7.80;;
21941;SDS011;11135;54.192;15.670;2023-02-28T05:33:59;13.30;;;6.95;;
21941;SDS011;11135;54.192;15.670;2023-02-28T05:37:08;16.38;;;7.25;;
21941;SDS011;11135;54.192;15.670;2023-02-28T05:40:16;14.50;;;7.05;;
21941;SDS011;11135;54.192;15.670;2023-02-28T05:43:22;11.77;;;5.93;;
21941;SDS011;11135;54.192;15.670;2023-02-28T05:46:29;11.80;;;5.93;;
21941;SDS011;11135;54.192;15.670;2023-02-28T05:49:41;17.27;;;7.30;;
21941;SDS011;11135;54.192;15.670;2023-02-28T05:52:49;14.02;;;6.95;;
21941;SDS011;11135;54.192;15.670;2023-02-28T05:55:55;14.63;;;7.25;;
21941;SDS011;11135;54.192;15.670;2023-02-28T05:59:03;15.05;;;7.10;;
21941;SDS011;11135;54.192;15.670;2023-02-28T06:02:08;10.38;;;6.10;;
21941;SDS011;11135;54.192;15.670;2023-02-28T06:05:22;18.08;;;7.88;;
21941;SDS011;11135;54.192;15.670;2023-02-28T06:08:27;11.88;;;6.38;;
21941;SDS011;11135;54.192;15.670;2023-02-28T06:11:33;15.38;;;7.15;;
21941;SDS011;11135;54.192;15.670;2023-02-28T06:24:40;14.23;;;6.00;;
21941;SDS011;11135;54.192;15.670;2023-02-28T06:41:00;12.52;;;5.90;;
21941;SDS011;11135;54.192;15.670;2023-02-28T06:47:20;11.65;;;5.45;;
21941;SDS011;11135;54.192;15.670;2023-02-28T07:00:29;11.32;;;5.57;;
21941;SDS011;11135;54.192;15.670;2023-02-28T07:07:03;11.73;;;5.25;;
21941;SDS011;11135;54.192;15.670;2023-02-28T07:32:50;7.75;;;4.28;;
21941;SDS011;11135;54.192;15.670;2023-02-28T07:39:19;14.23;;;4.38;;
21941;SDS011;11135;54.192;15.670;2023-02-28T07:48:57;7.63;;;4.68;;
21941;SDS011;11135;54.192;15.670;2023-02-28T07:58:24;11.85;;;4.80;;
21941;SDS011;11135;54.192;15.670;2023-02-28T08:01:31;12.75;;;5.13;;
21941;SDS011;11135;54.192;15.670;2023-02-28T08:04:57;8.27;;;4.05;;
21941;SDS011;11135;54.192;15.670;2023-02-28T08:14:37;21.45;;;6.68;;
21941;SDS011;11135;54.192;15.670;2023-02-28T08:27:44;6.32;;;3.08;;
21941;SDS011;11135;54.192;15.670;2023-02-28T08:30:50;6.55;;;3.72;;
21941;SDS011;11135;54.192;15.670;2023-02-28T08:37:10;5.57;;;2.97;;
21941;SDS011;11135;54.192;15.670;2023-02-28T08:47:00;9.05;;;4.47;;
21941;SDS011;11135;54.192;15.670;2023-02-28T08:50:08;11.95;;;4.38;;
21941;SDS011;11135;54.192;15.670;2023-02-28T08:56:30;10.32;;;4.55;;
21941;SDS011;11135;54.192;15.670;2023-02-28T09:15:57;9.48;;;4.20;;
21941;SDS011;11135;54.192;15.670;2023-02-28T09:19:03;8.50;;;3.65;;
21941;SDS011;11135;54.192;15.670;2023-02-28T09:22:10;6.40;;;3.92;;
21941;SDS011;11135;54.192;15.670;2023-02-28T09:28:26;8.93;;;4.13;;
21941;SDS011;11135;54.192;15.670;2023-02-28T09:31:34;8.02;;;4.25;;
21941;SDS011;11135;54.192;15.670;2023-02-28T09:34:46;9.50;;;3.90;;
21941;SDS011;11135;54.192;15.670;2023-02-28T09:37:53;6.85;;;3.85;;
21941;SDS011;11135;54.192;15.670;2023-02-28T09:41:00;7.55;;;3.65;;
21941;SDS011;11135;54.192;15.670;2023-02-28T09:44:10;10.30;;;3.97;;
21941;SDS011;11135;54.192;15.670;2023-02-28T09:47:21;6.97;;;3.05;;
21941;SDS011;11135;54.192;15.670;2023-02-28T09:50:35;8.93;;;3.47;;
21941;SDS011;11135;54.192;15.670;2023-02-28T10:20:38;3.30;;;1.65;;
21941;SDS011;11135;54.192;15.670;2023-02-28T10:26:56;4.80;;;1.65;;
21941;SDS011;11135;54.192;15.670;2023-02-28T10:30:08;2.63;;;0.95;;
21941;SDS011;11135;54.192;15.670;2023-02-28T10:33:19;3.47;;;1.25;;
21941;SDS011;11135;54.192;15.670;2023-02-28T10:36:28;5.57;;;1.48;;
21941;SDS011;11135;54.192;15.670;2023-02-28T10:39:37;5.35;;;1.30;;
21941;SDS011;11135;54.192;15.670;2023-02-28T10:42:43;6.22;;;2.15;;
21941;SDS011;11135;54.192;15.670;2023-02-28T10:45:59;3.35;;;1.30;;
21941;SDS011;11135;54.192;15.670;2023-02-28T10:49:13;3.45;;;1.17;;
21941;SDS011;11135;54.192;15.670;2023-02-28T10:55:46;4.72;;;1.55;;
21941;SDS011;11135;54.192;15.670;2023-02-28T10:59:01;3.05;;;1.48;;
21941;SDS011;11135;54.192;15.670;2023-02-28T11:05:34;4.35;;;1.88;;
21941;SDS011;11135;54.192;15.670;2023-02-28T11:08:49;2.40;;;1.33;;
21941;SDS011;11135;54.192;15.670;2023-02-28T11:11:57;4.85;;;1.88;;
21941;SDS011;11135;54.192;15.670;2023-02-28T11:15:06;4.32;;;1.75;;
21941;SDS011;11135;54.192;15.670;2023-02-28T11:18:24;4.80;;;1.30;;
21941;SDS011;11135;54.192;15.670;2023-02-28T11:21:33;2.42;;;1.30;;
21941;SDS011;11135;54.192;15.670;2023-02-28T11:24:42;4.20;;;1.30;;
21941;SDS011;11135;54.192;15.670;2023-02-28T11:27:55;1.90;;;0.60;;
21941;SDS011;11135;54.192;15.670;2023-02-28T11:34:23;2.55;;;1.00;;
21941;SDS011;11135;54.192;15.670;2023-02-28T11:44:11;1.52;;;0.77;;
21941;SDS011;11135;54.192;15.670;2023-02-28T11:47:25;2.40;;;1.05;;
21941;SDS011;11135;54.192;15.670;2023-02-28T11:50:46;4.13;;;0.87;;
21941;SDS011;11135;54.192;15.670;2023-02-28T11:54:01;3.40;;;1.83;;
21941;SDS011;11135;54.192;15.670;2023-02-28T11:57:15;2.58;;;0.93;;
21941;SDS011;11135;54.192;15.670;2023-02-28T12:00:33;2.50;;;0.95;;
21941;SDS011;11135;54.192;15.670;2023-02-28T12:03:44;2.40;;;1.00;;
21941;SDS011;11135;54.192;15.670;2023-02-28T12:06:56;3.72;;;1.30;;
21941;SDS011;11135;54.192;15.670;2023-02-28T12:10:04;4.13;;;1.52;;
21941;SDS011;11135;54.192;15.670;2023-02-28T12:13:16;2.85;;;1.05;;
21941;SDS011;11135;54.192;15.670;2023-02-28T12:16:31;3.78;;;1.00;;
21941;SDS011;11135;54.192;15.670;2023-02-28T12:19:43;2.38;;;0.90;;
21941;SDS011;11135;54.192;15.670;2023-02-28T12:22:55;3.35;;;1.13;;
21941;SDS011;11135;54.192;15.670;2023-02-28T12:26:07;4.07;;;1.10;;
21941;SDS011;11135;54.192;15.670;2023-02-28T12:29:23;5.70;;;1.20;;
21941;SDS011;11135;54.192;15.670;2023-02-28T12:32:36;4.32;;;2.47;;
21941;SDS011;11135;54.192;15.670;2023-02-28T12:35:44;3.83;;;1.10;;
21941;SDS011;11135;54.192;15.670;2023-02-28T12:38:55;4.82;;;1.40;;
21941;SDS011;11135;54.192;15.670;2023-02-28T12:42:03;3.67;;;1.20;;
21941;SDS011;11135;54.192;15.670;2023-02-28T12:45:11;1.70;;;1.00;;
21941;SDS011;11135;54.192;15.670;2023-02-28T12:48:27;1.87;;;1.13;;
21941;SDS011;11135;54.192;15.670;2023-02-28T12:51:33;3.83;;;1.33;;
21941;SDS011;11135;54.192;15.670;2023-02-28T12:54:43;3.17;;;1.48;;
21941;SDS011;11135;54.192;15.670;2023-02-28T12:57:50;5.22;;;1.95;;
21941;SDS011;11135;54.192;15.670;2023-02-28T13:01:03;4.28;;;1.67;;
21941;SDS011;11135;54.192;15.670;2023-02-28T13:10:57;3.88;;;1.75;;
21941;SDS011;11135;54.192;15.670;2023-02-28T13:14:15;4.57;;;1.77;;
21941;SDS011;11135;54.192;15.670;2023-02-28T13:17:23;4.07;;;1.75;;
21941;SDS011;11135;54.192;15.670;2023-02-28T13:20:31;4.43;;;3.10;;
21941;SDS011;11135;54.192;15.670;2023-02-28T13:23:56;6.35;;;2.28;;
21941;SDS011;11135;54.192;15.670;2023-02-28T13:27:25;4.82;;;1.80;;
21941;SDS011;11135;54.192;15.670;2023-02-28T13:34:12;4.88;;;1.98;;
21941;SDS011;11135;54.192;15.670;2023-02-28T13:37:34;4.72;;;1.85;;
21941;SDS011;11135;54.192;15.670;2023-02-28T13:40:48;4.10;;;1.73;;
21941;SDS011;11135;54.192;15.670;2023-02-28T13:44:04;5.65;;;2.10;;
21941;SDS011;11135;54.192;15.670;2023-02-28T13:47:24;4.20;;;1.90;;
21941;SDS011;11135;54.192;15.670;2023-02-28T13:50:37;6.20;;;2.05;;
21941;SDS011;11135;54.192;15.670;2023-02-28T13:53:48;4.80;;;2.05;;
21941;SDS011;11135;54.192;15.670;2023-02-28T13:57:01;3.38;;;2.13;;
21941;SDS011;11135;54.192;15.670;2023-02-28T14:00:19;4.35;;;1.60;;
21941;SDS011;11135;54.192;15.670;2023-02-28T14:03:30;3.72;;;1.38;;
21941;SDS011;11135;54.192;15.670;2023-02-28T14:06:38;7.82;;;2.08;;
21941;SDS011;11135;54.192;15.670;2023-02-28T14:09:52;4.00;;;1.40;;
21941;SDS011;11135;54.192;15.670;2023-02-28T14:13:14;2.42;;;1.33;;
21941;SDS011;11135;54.192;15.670;2023-02-28T14:16:45;7.22;;;1.73;;
21941;SDS011;11135;54.192;15.670;2023-02-28T14:19:52;4.68;;;1.63;;
21941;SDS011;11135;54.192;15.670;2023-02-28T14:23:00;4.85;;;1.42;;
21941;SDS011;11135;54.192;15.670;2023-02-28T14:26:14;5.22;;;1.50;;
21941;SDS011;11135;54.192;15.670;2023-02-28T14:29:30;2.30;;;1.50;;
21941;SDS011;11135;54.192;15.670;2023-02-28T14:32:43;2.95;;;1.40;;
21941;SDS011;11135;54.192;15.670;2023-02-28T14:35:53;5.13;;;1.50;;
21941;SDS011;11135;54.192;15.670;2023-02-28T14:39:01;4.78;;;1.30;;
21941;SDS011;11135;54.192;15.670;2023-02-28T14:45:33;2.33;;;1.10;;
21941;SDS011;11135;54.192;15.670;2023-02-28T14:48:42;4.10;;;1.27;;
21941;SDS011;11135;54.192;15.670;2023-02-28T14:51:50;2.75;;;1.27;;
21941;SDS011;11135;54.192;15.670;2023-02-28T14:55:09;2.92;;;1.38;;
21941;SDS011;11135;54.192;15.670;2023-02-28T14:58:21;3.05;;;1.30;;
21941;SDS011;11135;54.192;15.670;2023-02-28T15:01:27;3.08;;;1.15;;
21941;SDS011;11135;54.192;15.670;2023-02-28T15:04:37;4.75;;;1.27;;
21941;SDS011;11135;54.192;15.670;2023-02-28T15:07:46;3.45;;;1.05;;
21941;SDS011;11135;54.192;15.670;2023-02-28T15:10:54;2.17;;;1.20;;
21941;SDS011;11135;54.192;15.670;2023-02-28T15:14:04;3.13;;;1.30;;
21941;SDS011;11135;54.192;15.670;2023-02-28T15:17:14;4.68;;;1.42;;
21941;SDS011;11135;54.192;15.670;2023-02-28T15:20:26;3.67;;;1.08;;
21941;SDS011;11135;54.192;15.670;2023-02-28T15:23:32;2.75;;;1.00;;
21941;SDS011;11135;54.192;15.670;2023-02-28T15:26:45;2.70;;;0.80;;
21941;SDS011;11135;54.192;15.670;2023-02-28T15:29:53;3.05;;;1.15;;
21941;SDS011;11135;54.192;15.670;2023-02-28T15:33:04;2.13;;;1.10;;
21941;SDS011;11135;54.192;15.670;2023-02-28T15:36:14;2.83;;;0.90;;
21941;SDS011;11135;54.192;15.670;2023-02-28T15:39:23;3.92;;;1.10;;
21941;SDS011;11135;54.192;15.670;2023-02-28T15:42:31;3.08;;;0.90;;
21941;SDS011;11135;54.192;15.670;2023-02-28T15:45:38;3.30;;;1.00;;
21941;SDS011;11135;54.192;15.670;2023-02-28T15:48:49;2.47;;;1.05;;
21941;SDS011;11135;54.192;15.670;2023-02-28T15:51:58;4.00;;;1.00;;
21941;SDS011;11135;54.192;15.670;2023-02-28T15:55:08;3.08;;;1.05;;
21941;SDS011;11135;54.192;15.670;2023-02-28T15:58:18;4.07;;;0.93;;
21941;SDS011;11135;54.192;15.670;2023-02-28T16:01:26;2.78;;;1.35;;
21941;SDS011;11135;54.192;15.670;2023-02-28T16:04:34;1.92;;;0.90;;
21941;SDS011;11135;54.192;15.670;2023-02-28T16:07:43;2.80;;;1.10;;
21941;SDS011;11135;54.192;15.670;2023-02-28T16:10:57;4.18;;;1.30;;
21941;SDS011;11135;54.192;15.670;2023-02-28T16:14:04;4.97;;;1.50;;
21941;SDS011;11135;54.192;15.670;2023-02-28T16:17:16;3.50;;;1.20;;
21941;SDS011;11135;54.192;15.670;2023-02-28T16:20:28;2.28;;;0.88;;
21941;SDS011;11135;54.192;15.670;2023-02-28T16:23:37;4.93;;;1.25;;
21941;SDS011;11135;54.192;15.670;2023-02-28T16:26:45;3.83;;;1.65;;
21941;SDS011;11135;54.192;15.670;2023-02-28T16:29:51;6.90;;;1.40;;
21941;SDS011;11135;54.192;15.670;2023-02-28T16:33:00;3.88;;;1.73;;
21941;SDS011;11135;54.192;15.670;2023-02-28T16:36:09;2.17;;;1.17;;
21941;SDS011;11135;54.192;15.670;2023-02-28T16:39:18;5.50;;;1.40;;
21941;SDS011;11135;54.192;15.670;2023-02-28T16:42:30;2.65;;;0.93;;
21941;SDS011;11135;54.192;15.670;2023-02-28T16:45:36;4.10;;;1.92;;
21941;SDS011;11135;54.192;15.670;2023-02-28T16:48:48;6.25;;;1.63;;
21941;SDS011;11135;54.192;15.670;2023-02-28T16:51:55;6.90;;;1.80;;
21941;SDS011;11135;54.192;15.670;2023-02-28T16:55:03;5.55;;;1.33;;
21941;SDS011;11135;54.192;15.670;2023-02-28T16:58:17;3.45;;;1.20;;
21941;SDS011;11135;54.192;15.670;2023-02-28T17:01:27;3.47;;;1.25;;
21941;SDS011;11135;54.192;15.670;2023-02-28T17:04:38;4.35;;;1.23;;
21941;SDS011;11135;54.192;15.670;2023-02-28T17:07:44;4.22;;;1.50;;
21941;SDS011;11135;54.192;15.670;2023-02-28T17:10:55;3.70;;;1.63;;
21941;SDS011;11135;54.192;15.670;2023-02-28T17:14:04;4.53;;;2.08;;
21941;SDS011;11135;54.192;15.670;2023-02-28T17:17:10;5.88;;;2.30;;
21941;SDS011;11135;54.192;15.670;2023-02-28T17:20:21;7.90;;;2.67;;
21941;SDS011;11135;54.192;15.670;2023-02-28T17:23:30;8.05;;;2.17;;
21941;SDS011;11135;54.192;15.670;2023-02-28T17:26:39;5.97;;;2.22;;
21941;SDS011;11135;54.192;15.670;2023-02-28T17:29:46;5.07;;;1.90;;
21941;SDS011;11135;54.192;15.670;2023-02-28T17:32:54;5.22;;;2.13;;
21941;SDS011;11135;54.192;15.670;2023-02-28T17:36:02;7.72;;;2.80;;
21941;SDS011;11135;54.192;15.670;2023-02-28T17:39:11;7.13;;;3.03;;
21941;SDS011;11135;54.192;15.670;2023-02-28T17:42:25;6.18;;;2.67;;
21941;SDS011;11135;54.192;15.670;2023-02-28T17:45:33;9.82;;;3.88;;
21941;SDS011;11135;54.192;15.670;2023-02-28T17:48:40;10.63;;;3.55;;
21941;SDS011;11135;54.192;15.670;2023-02-28T17:51:46;13.23;;;4.60;;
21941;SDS011;11135;54.192;15.670;2023-02-28T17:54:54;11.13;;;4.55;;
21941;SDS011;11135;54.192;15.670;2023-02-28T17:58:05;10.60;;;5.45;;
21941;SDS011;11135;54.192;15.670;2023-02-28T18:01:15;12.20;;;5.88;;
21941;SDS011;11135;54.192;15.670;2023-02-28T18:04:39;10.85;;;5.85;;
21941;SDS011;11135;54.192;15.670;2023-02-28T18:07:49;11.35;;;5.82;;
21941;SDS011;11135;54.192;15.670;2023-02-28T18:10:57;10.60;;;6.43;;
21941;SDS011;11135;54.192;15.670;2023-02-28T18:14:06;10.70;;;5.60;;
21941;SDS011;11135;54.192;15.670;2023-02-28T18:17:11;13.88;;;6.10;;
21941;SDS011;11135;54.192;15.670;2023-02-28T18:20:20;12.30;;;5.07;;
21941;SDS011;11135;54.192;15.670;2023-02-28T18:23:33;10.93;;;6.53;;
21941;SDS011;11135;54.192;15.670;2023-02-28T18:26:56;12.85;;;6.43;;
21941;SDS011;11135;54.192;15.670;2023-02-28T18:30:11;9.73;;;6.40;;
21941;SDS011;11135;54.192;15.670;2023-02-28T18:33:28;10.30;;;5.97;;
21941;SDS011;11135;54.192;15.670;2023-02-28T18:36:34;13.35;;;7.10;;
21941;SDS011;11135;54.192;15.670;2023-02-28T18:39:44;13.07;;;6.90;;
21941;SDS011;11135;54.192;15.670;2023-02-28T18:42:51;18.95;;;9.93;;
21941;SDS011;11135;54.192;15.670;2023-02-28T18:46:01;15.05;;;8.05;;
21941;SDS011;11135;54.192;15.670;2023-02-28T18:49:08;14.50;;;8.25;;
21941;SDS011;11135;54.192;15.670;2023-02-28T18:52:17;16.20;;;7.70;;
21941;SDS011;11135;54.192;15.670;2023-02-28T18:55:24;14.27;;;7.97;;
21941;SDS011;11135;54.192;15.670;2023-02-28T18:58:30;14.50;;;8.18;;
21941;SDS011;11135;54.192;15.670;2023-02-28T19:01:42;16.33;;;7.40;;
21941;SDS011;11135;54.192;15.670;2023-02-28T19:04:53;20.05;;;9.55;;
21941;SDS011;11135;54.192;15.670;2023-02-28T19:07:59;17.65;;;8.85;;
21941;SDS011;11135;54.192;15.670;2023-02-28T19:11:08;16.60;;;8.70;;
21941;SDS011;11135;54.192;15.670;2023-02-28T19:14:14;15.63;;;8.90;;
21941;SDS011;11135;54.192;15.670;2023-02-28T19:17:26;15.70;;;8.63;;
21941;SDS011;11135;54.192;15.670;2023-02-28T19:20:32;19.85;;;8.65;;
21941;SDS011;11135;54.192;15.670;2023-02-28T19:23:50;18.77;;;8.27;;
21941;SDS011;11135;54.192;15.670;2023-02-28T19:26:56;13.85;;;7.63;;
21941;SDS011;11135;54.192;15.670;2023-02-28T19:30:03;16.30;;;8.48;;
21941;SDS011;11135;54.192;15.670;2023-02-28T19:33:17;14.90;;;8.43;;
21941;SDS011;11135;54.192;15.670;2023-02-28T19:36:23;17.05;;;7.40;;
21941;SDS011;11135;54.192;15.670;2023-02-28T19:39:35;16.80;;;9.65;;
21941;SDS011;11135;54.192;15.670;2023-02-28T19:42:46;14.35;;;7.97;;
21941;SDS011;11135;54.192;15.670;2023-02-28T19:45:54;18.67;;;8.55;;
21941;SDS011;11135;54.192;15.670;2023-02-28T19:49:05;18.40;;;9.27;;
21941;SDS011;11135;54.192;15.670;2023-02-28T19:52:12;16.75;;;8.57;;
21941;SDS011;11135;54.192;15.670;2023-02-28T19:55:20;16.38;;;8.32;;
21941;SDS011;11135;54.192;15.670;2023-02-28T19:58:26;14.82;;;6.78;;
21941;SDS011;11135;54.192;15.670;2023-02-28T20:01:37;17.80;;;7.65;;
21941;SDS011;11135;54.192;15.670;2023-02-28T20:04:48;14.88;;;6.63;;
21941;SDS011;11135;54.192;15.670;2023-02-28T20:08:02;14.77;;;6.15;;
21941;SDS011;11135;54.192;15.670;2023-02-28T20:11:16;13.43;;;6.47;;
21941;SDS011;11135;54.192;15.670;2023-02-28T20:14:25;14.38;;;6.65;;
21941;SDS011;11135;54.192;15.670;2023-02-28T20:17:44;12.85;;;5.45;;
21941;SDS011;11135;54.192;15.670;2023-02-28T20:20:57;12.05;;;5.88;;
21941;SDS011;11135;54.192;15.670;2023-02-28T20:24:03;11.45;;;5.30;;
21941;SDS011;11135;54.192;15.670;2023-02-28T20:27:08;12.27;;;4.90;;
21941;SDS011;11135;54.192;15.670;2023-02-28T20:30:16;13.27;;;5.00;;
21941;SDS011;11135;54.192;15.670;2023-02-28T20:33:25;10.07;;;5.30;;
21941;SDS011;11135;54.192;15.670;2023-02-28T20:36:39;10.23;;;5.10;;
21941;SDS011;11135;54.192;15.670;2023-02-28T20:39:48;12.82;;;5.63;;
21941;SDS011;11135;54.192;15.670;2023-02-28T20:42:56;10.82;;;5.47;;
21941;SDS011;11135;54.192;15.670;2023-02-28T20:46:07;13.85;;;5.35;;
21941;SDS011;11135;54.192;15.670;2023-02-28T20:49:15;10.55;;;5.28;;
21941;SDS011;11135;54.192;15.670;2023-02-28T20:52:24;13.57;;;5.72;;
21941;SDS011;11135;54.192;15.670;2023-02-28T20:55:38;14.65;;;5.65;;
21941;SDS011;11135;54.192;15.670;2023-02-28T20:58:56;10.90;;;5.13;;
21941;SDS011;11135;54.192;15.670;2023-02-28T21:02:08;11.02;;;4.85;;
21941;SDS011;11135;54.192;15.670;2023-02-28T21:05:24;13.27;;;4.93;;
21941;SDS011;11135;54.192;15.670;2023-02-28T21:08:45;13.20;;;5.00;;
21941;SDS011;11135;54.192;15.670;2023-02-28T21:11:56;18.65;;;4.38;;
21941;SDS011;11135;54.192;15.670;2023-02-28T21:15:02;10.77;;;5.35;;
21941;SDS011;11135;54.192;15.670;2023-02-28T21:18:09;9.75;;;4.90;;
21941;SDS011;11135;54.192;15.670;2023-02-28T21:21:21;10.55;;;5.32;;
21941;SDS011;11135;54.192;15.670;2023-02-28T21:24:34;11.98;;;5.05;;
21941;SDS011;11135;54.192;15.670;2023-02-28T21:27:41;9.95;;;5.03;;
21941;SDS011;11135;54.192;15.670;2023-02-28T21:30:50;10.77;;;5.22;;
21941;SDS011;11135;54.192;15.670;2023-02-28T21:33:57;9.07;;;5.32;;
21941;SDS011;11135;54.192;15.670;2023-02-28T21:37:04;10.60;;;4.70;;
21941;SDS011;11135;54.192;15.670;2023-02-28T21:40:19;7.53;;;3.85;;
21941;SDS011;11135;54.192;15.670;2023-02-28T21:43:24;13.75;;;5.30;;
21941;SDS011;11135;54.192;15.670;2023-02-28T21:46:32;13.50;;;5.00;;
21941;SDS011;11135;54.192;15.670;2023-02-28T21:49:40;10.68;;;5.40;;
21941;SDS011;11135;54.192;15.670;2023-02-28T21:52:47;10.25;;;5.53;;
21941;SDS011;11135;54.192;15.670;2023-02-28T21:56:02;14.25;;;5.72;;
21941;SDS011;11135;54.192;15.670;2023-02-28T21:59:11;11.02;;;6.68;;